sensor_id;sensor_type;location;lat;lon;timestamp;pressure;altitude;pressure_sealevel;temperature;humidity
68859;BME280;55864;49.238;8.092;2023-08-17T00:00:36;99532.28;;;22.25;76.84
68859;BME280;55864;49.238;8.092;2023-08-17T00:02:36;99531.50;;;22.18;77.07
68859;BME280;55864;49.238;8.092;2023-08-17T00:04:38;99521.66;;;22.12;77.08
68859;BME280;55864;49.238;8.092;2023-08-17T00:06:38;99531.13;;;22.08;76.99
68859;BME280;55864;49.238;8.092;2023-08-17T00:08:39;99524.94;;;22.07;76.40
68859;BME280;55864;49.238;8.092;2023-08-17T00:10:40;99526.69;;;21.95;76.87
68859;BME280;55864;49.238;8.092;2023-08-17T00:12:40;99526.25;;;21.92;77.25
68859;BME280;55864;49.238;8.092;2023-08-17T00:14:41;99530.16;;;21.96;76.56
68859;BME280;55864;49.238;8.092;2023-08-17T00:16:41;99526.06;;;21.93;76.98
68859;BME280;55864;49.238;8.092;2023-08-17T00:18:42;99531.22;;;21.88;77.16
68859;BME280;55864;49.238;8.092;2023-08-17T00:20:44;99524.44;;;21.79;77.40
68859;BME280;55864;49.238;8.092;2023-08-17T00:22:44;99528.31;;;21.90;76.86
68859;BME280;55864;49.238;8.092;2023-08-17T00:24:45;99520.78;;;21.74;77.92
68859;BME280;55864;49.238;8.092;2023-08-17T00:26:45;99519.31;;;21.78;77.75
68859;BME280;55864;49.238;8.092;2023-08-17T00:28:46;99522.19;;;21.83;77.29
68859;BME280;55864;49.238;8.092;2023-08-17T00:30:46;99522.41;;;21.75;77.39
68859;BME280;55864;49.238;8.092;2023-08-17T00:32:47;99524.28;;;21.74;77.92
68859;BME280;55864;49.238;8.092;2023-08-17T00:34:47;99523.66;;;21.72;77.51
68859;BME280;55864;49.238;8.092;2023-08-17T00:36:49;99521.34;;;21.89;77.06
68859;BME280;55864;49.238;8.092;2023-08-17T00:38:50;99524.41;;;21.92;76.47
68859;BME280;55864;49.238;8.092;2023-08-17T00:40:50;99517.63;;;21.90;76.00
68859;BME280;55864;49.238;8.092;2023-08-17T00:42:51;99510.47;;;21.84;76.19
68859;BME280;55864;49.238;8.092;2023-08-17T00:44:51;99505.31;;;21.82;76.53
68859;BME280;55864;49.238;8.092;2023-08-17T00:46:52;99502.22;;;21.79;76.47
68859;BME280;55864;49.238;8.092;2023-08-17T00:48:53;99503.50;;;21.70;77.02
68859;BME280;55864;49.238;8.092;2023-08-17T00:50:55;99493.84;;;21.69;77.01
68859;BME280;55864;49.238;8.092;2023-08-17T00:52:57;99496.94;;;21.66;76.48
68859;BME280;55864;49.238;8.092;2023-08-17T00:55:00;99495.75;;;21.55;77.20
68859;BME280;55864;49.238;8.092;2023-08-17T00:57:01;99502.28;;;21.66;77.18
68859;BME280;55864;49.238;8.092;2023-08-17T00:59:02;99494.53;;;21.44;77.31
68859;BME280;55864;49.238;8.092;2023-08-17T01:01:02;99489.41;;;21.49;77.50
68859;BME280;55864;49.238;8.092;2023-08-17T01:03:03;99491.69;;;21.46;77.53
68859;BME280;55864;49.238;8.092;2023-08-17T01:05:05;99489.19;;;21.51;77.22
68859;BME280;55864;49.238;8.092;2023-08-17T01:07:05;99490.84;;;21.45;77.61
68859;BME280;55864;49.238;8.092;2023-08-17T01:09:07;99493.13;;;21.42;77.11
68859;BME280;55864;49.238;8.092;2023-08-17T01:11:10;99493.31;;;21.47;77.02
68859;BME280;55864;49.238;8.092;2023-08-17T01:13:17;99485.91;;;21.42;77.19
68859;BME280;55864;49.238;8.092;2023-08-17T01:15:24;99483.00;;;21.50;76.84
68859;BME280;55864;49.238;8.092;2023-08-17T01:17:29;99487.69;;;21.62;76.42
68859;BME280;55864;49.238;8.092;2023-08-17T01:19:32;99489.56;;;21.54;75.64
68859;BME280;55864;49.238;8.092;2023-08-17T01:21:40;99486.28;;;21.59;75.03
68859;BME280;55864;49.238;8.092;2023-08-17T01:23:44;99486.47;;;21.58;75.66
68859;BME280;55864;49.238;8.092;2023-08-17T01:25:44;99493.09;;;21.55;75.33
68859;BME280;55864;49.238;8.092;2023-08-17T01:27:45;99492.69;;;21.45;75.53
68859;BME280;55864;49.238;8.092;2023-08-17T01:29:47;99483.84;;;21.44;75.62
68859;BME280;55864;49.238;8.092;2023-08-17T01:31:53;99486.53;;;21.44;75.36
68859;BME280;55864;49.238;8.092;2023-08-17T01:33:58;99483.28;;;21.36;75.56
68859;BME280;55864;49.238;8.092;2023-08-17T01:36:10;99485.13;;;21.35;75.06
68859;BME280;55864;49.238;8.092;2023-08-17T01:38:15;99489.03;;;21.39;75.08
68859;BME280;55864;49.238;8.092;2023-08-17T01:40:20;99488.44;;;21.31;74.97
68859;BME280;55864;49.238;8.092;2023-08-17T01:42:21;99487.22;;;21.27;75.35
68859;BME280;55864;49.238;8.092;2023-08-17T01:44:22;99488.44;;;21.24;75.40
68859;BME280;55864;49.238;8.092;2023-08-17T01:46:24;99487.66;;;21.17;75.67
68859;BME280;55864;49.238;8.092;2023-08-17T01:48:25;99487.22;;;21.27;75.53
68859;BME280;55864;49.238;8.092;2023-08-17T01:50:26;99488.44;;;21.24;75.31
68859;BME280;55864;49.238;8.092;2023-08-17T01:52:27;99495.22;;;21.20;75.84
68859;BME280;55864;49.238;8.092;2023-08-17T01:54:28;99501.19;;;21.22;75.42
68859;BME280;55864;49.238;8.092;2023-08-17T01:56:31;99494.59;;;21.38;74.75
68859;BME280;55864;49.238;8.092;2023-08-17T01:58:32;99490.06;;;21.25;75.02
68859;BME280;55864;49.238;8.092;2023-08-17T02:00:32;99491.31;;;21.29;74.43
68859;BME280;55864;49.238;8.092;2023-08-17T02:02:33;99490.91;;;21.32;74.74
68859;BME280;55864;49.238;8.092;2023-08-17T02:04:33;99484.31;;;21.28;74.34
68859;BME280;55864;49.238;8.092;2023-08-17T02:06:34;99487.38;;;21.38;74.32
68859;BME280;55864;49.238;8.092;2023-08-17T02:08:37;99482.88;;;21.26;74.64
68859;BME280;55864;49.238;8.092;2023-08-17T02:10:37;99482.06;;;21.32;74.40
68859;BME280;55864;49.238;8.092;2023-08-17T02:12:39;99489.06;;;21.26;74.17
68859;BME280;55864;49.238;8.092;2023-08-17T02:14:39;99485.78;;;21.31;74.30
68859;BME280;55864;49.238;8.092;2023-08-17T02:16:41;99484.72;;;21.25;73.97
68859;BME280;55864;49.238;8.092;2023-08-17T02:18:41;99479.81;;;21.22;74.02
68859;BME280;55864;49.238;8.092;2023-08-17T02:20:42;99469.56;;;21.19;74.38
68859;BME280;55864;49.238;8.092;2023-08-17T02:22:42;99473.25;;;21.18;73.97
68859;BME280;55864;49.238;8.092;2023-08-17T02:24:43;99467.69;;;21.20;74.17
68859;BME280;55864;49.238;8.092;2023-08-17T02:26:43;99469.78;;;21.11;74.26
68859;BME280;55864;49.238;8.092;2023-08-17T02:28:45;99459.50;;;21.15;74.36
68859;BME280;55864;49.238;8.092;2023-08-17T02:30:46;99457.66;;;21.09;73.98
68859;BME280;55864;49.238;8.092;2023-08-17T02:32:46;99461.53;;;21.13;74.23
68859;BME280;55864;49.238;8.092;2023-08-17T02:34:47;99465.25;;;21.12;74.52
68859;BME280;55864;49.238;8.092;2023-08-17T02:36:47;99459.06;;;21.18;74.32
68859;BME280;55864;49.238;8.092;2023-08-17T02:38:48;99460.69;;;21.25;73.33
68859;BME280;55864;49.238;8.092;2023-08-17T02:40:48;99465.44;;;21.23;73.20
68859;BME280;55864;49.238;8.092;2023-08-17T02:42:49;99470.78;;;21.23;73.66
68859;BME280;55864;49.238;8.092;2023-08-17T02:44:51;99461.72;;;21.24;73.29
68859;BME280;55864;49.238;8.092;2023-08-17T02:46:51;99462.78;;;21.10;73.96
68859;BME280;55864;49.238;8.092;2023-08-17T02:48:52;99463.81;;;21.09;73.73
68859;BME280;55864;49.238;8.092;2023-08-17T02:50:52;99461.53;;;21.19;73.83
68859;BME280;55864;49.238;8.092;2023-08-17T02:52:53;99464.19;;;21.26;73.41
68859;BME280;55864;49.238;8.092;2023-08-17T02:54:53;99460.31;;;21.15;73.74
68859;BME280;55864;49.238;8.092;2023-08-17T02:56:54;99453.53;;;21.19;73.60
68859;BME280;55864;49.238;8.092;2023-08-17T02:58:55;99456.41;;;21.11;73.88
68859;BME280;55864;49.238;8.092;2023-08-17T03:00:57;99451.06;;;21.11;73.80
68859;BME280;55864;49.238;8.092;2023-08-17T03:02:57;99455.59;;;21.11;73.94
68859;BME280;55864;49.238;8.092;2023-08-17T03:04:59;99457.44;;;21.10;73.74
68859;BME280;55864;49.238;8.092;2023-08-17T03:07:00;99453.13;;;21.09;74.16
68859;BME280;55864;49.238;8.092;2023-08-17T03:09:01;99454.38;;;21.13;73.77
68859;BME280;55864;49.238;8.092;2023-08-17T03:11:01;99445.56;;;21.06;74.38
68859;BME280;55864;49.238;8.092;2023-08-17T03:13:02;99450.47;;;21.03;74.78
68859;BME280;55864;49.238;8.092;2023-08-17T03:15:03;99451.91;;;21.05;74.37
68859;BME280;55864;49.238;8.092;2023-08-17T03:17:05;99452.69;;;21.12;74.85
68859;BME280;55864;49.238;8.092;2023-08-17T03:19:06;99451.47;;;21.15;74.32
68859;BME280;55864;49.238;8.092;2023-08-17T03:21:07;99449.59;;;21.28;73.81
68859;BME280;55864;49.238;8.092;2023-08-17T03:23:07;99449.81;;;21.27;73.22
68859;BME280;55864;49.238;8.092;2023-08-17T03:25:08;99449.16;;;21.31;72.74
68859;BME280;55864;49.238;8.092;2023-08-17T03:27:09;99447.75;;;21.29;73.10
68859;BME280;55864;49.238;8.092;2023-08-17T03:29:13;99445.03;;;21.35;72.87
68859;BME280;55864;49.238;8.092;2023-08-17T03:31:14;99445.88;;;21.29;73.14
68859;BME280;55864;49.238;8.092;2023-08-17T03:33:17;99438.53;;;21.12;73.50
68859;BME280;55864;49.238;8.092;2023-08-17T03:35:18;99437.06;;;21.16;73.57
68859;BME280;55864;49.238;8.092;2023-08-17T03:37:20;99433.03;;;21.00;74.11
68859;BME280;55864;49.238;8.092;2023-08-17T03:39:20;99426.81;;;21.00;73.78
68859;BME280;55864;49.238;8.092;2023-08-17T03:41:21;99435.28;;;21.03;73.79
68859;BME280;55864;49.238;8.092;2023-08-17T03:43:22;99427.44;;;20.95;73.91
68859;BME280;55864;49.238;8.092;2023-08-17T03:45:22;99429.72;;;20.92;73.54
68859;BME280;55864;49.238;8.092;2023-08-17T03:47:25;99426.84;;;20.80;74.35
68859;BME280;55864;49.238;8.092;2023-08-17T03:49:26;99428.09;;;20.84;73.81
68859;BME280;55864;49.238;8.092;2023-08-17T03:51:27;99433.63;;;20.76;74.49
68859;BME280;55864;49.238;8.092;2023-08-17T03:53:28;99430.75;;;20.84;73.83
68859;BME280;55864;49.238;8.092;2023-08-17T03:55:28;99429.31;;;20.88;73.80
68859;BME280;55864;49.238;8.092;2023-08-17T03:57:29;99428.91;;;20.78;74.19
68859;BME280;55864;49.238;8.092;2023-08-17T03:59:29;99431.16;;;20.88;74.13
68859;BME280;55864;49.238;8.092;2023-08-17T04:01:30;99438.56;;;20.92;73.88
68859;BME280;55864;49.238;8.092;2023-08-17T04:03:30;99437.94;;;20.90;73.36
68859;BME280;55864;49.238;8.092;2023-08-17T04:05:32;99436.50;;;20.94;73.45
68859;BME280;55864;49.238;8.092;2023-08-17T04:07:33;99440.00;;;20.95;73.50
68859;BME280;55864;49.238;8.092;2023-08-17T04:09:33;99431.38;;;21.06;72.84
68859;BME280;55864;49.238;8.092;2023-08-17T04:11:35;99440.41;;;20.98;73.45
68859;BME280;55864;49.238;8.092;2023-08-17T04:13:35;99451.28;;;20.90;73.83
68859;BME280;55864;49.238;8.092;2023-08-17T04:15:36;99454.41;;;20.87;73.95
68859;BME280;55864;49.238;8.092;2023-08-17T04:17:36;99460.53;;;20.88;73.54
68859;BME280;55864;49.238;8.092;2023-08-17T04:19:38;99451.94;;;20.79;74.00
68859;BME280;55864;49.238;8.092;2023-08-17T04:21:39;99451.28;;;20.90;73.72
68859;BME280;55864;49.238;8.092;2023-08-17T04:23:40;99447.41;;;20.86;73.78
68859;BME280;55864;49.238;8.092;2023-08-17T04:25:41;99449.88;;;20.81;73.84
68859;BME280;55864;49.238;8.092;2023-08-17T04:27:42;99455.63;;;20.78;74.03
68859;BME280;55864;49.238;8.092;2023-08-17T04:29:43;99453.16;;;20.83;73.87
68859;BME280;55864;49.238;8.092;2023-08-17T04:31:44;99451.50;;;20.82;74.16
68859;BME280;55864;49.238;8.092;2023-08-17T04:33:46;99453.97;;;20.84;74.26
68859;BME280;55864;49.238;8.092;2023-08-17T04:35:47;99453.56;;;20.80;74.24
68859;BME280;55864;49.238;8.092;2023-08-17T04:37:50;99463.63;;;20.78;74.27
68859;BME280;55864;49.238;8.092;2023-08-17T04:39:50;99457.88;;;20.81;74.09
68859;BME280;55864;49.238;8.092;2023-08-17T04:41:54;99460.16;;;20.71;74.51
68859;BME280;55864;49.238;8.092;2023-08-17T04:44:01;99458.28;;;20.78;74.55
68859;BME280;55864;49.238;8.092;2023-08-17T04:46:02;99464.88;;;20.89;74.19
68859;BME280;55864;49.238;8.092;2023-08-17T04:48:04;99465.25;;;21.05;73.49
68859;BME280;55864;49.238;8.092;2023-08-17T04:50:06;99477.00;;;21.04;72.87
68859;BME280;55864;49.238;8.092;2023-08-17T04:52:08;99477.00;;;21.04;72.77
68859;BME280;55864;49.238;8.092;2023-08-17T04:54:10;99478.00;;;21.03;72.84
68859;BME280;55864;49.238;8.092;2023-08-17T04:56:10;99478.22;;;20.82;73.49
68859;BME280;55864;49.238;8.092;2023-08-17T04:58:12;99473.28;;;20.86;73.51
68859;BME280;55864;49.238;8.092;2023-08-17T05:00:15;99476.16;;;20.84;73.83
68859;BME280;55864;49.238;8.092;2023-08-17T05:02:16;99475.31;;;20.84;74.03
68859;BME280;55864;49.238;8.092;2023-08-17T05:04:16;99478.81;;;20.84;73.82
68859;BME280;55864;49.238;8.092;2023-08-17T05:06:17;99482.31;;;20.78;73.91
68859;BME280;55864;49.238;8.092;2023-08-17T05:08:18;99488.69;;;20.71;74.57
68859;BME280;55864;49.238;8.092;2023-08-17T05:10:20;99483.56;;;20.69;74.60
68859;BME280;55864;49.238;8.092;2023-08-17T05:12:20;99485.00;;;20.65;74.93
68859;BME280;55864;49.238;8.092;2023-08-17T05:14:21;99488.72;;;20.64;75.13
68859;BME280;55864;49.238;8.092;2023-08-17T05:16:22;99490.16;;;20.60;75.43
68859;BME280;55864;49.238;8.092;2023-08-17T05:18:22;99487.28;;;20.55;75.88
68859;BME280;55864;49.238;8.092;2023-08-17T05:20:23;99496.31;;;20.54;76.10
68859;BME280;55864;49.238;8.092;2023-08-17T05:22:23;99495.69;;;20.52;76.28
68859;BME280;55864;49.238;8.092;2023-08-17T05:24:24;99504.31;;;20.54;76.23
68859;BME280;55864;49.238;8.092;2023-08-17T05:26:26;99498.13;;;20.53;77.03
68859;BME280;55864;49.238;8.092;2023-08-17T05:28:27;99497.53;;;20.71;76.58
68859;BME280;55864;49.238;8.092;2023-08-17T05:30:27;99495.91;;;20.70;76.63
68859;BME280;55864;49.238;8.092;2023-08-17T05:32:28;99493.63;;;20.80;76.31
68859;BME280;55864;49.238;8.092;2023-08-17T05:34:29;99501.22;;;20.83;75.99
68859;BME280;55864;49.238;8.092;2023-08-17T05:36:30;99501.22;;;20.83;76.33
68859;BME280;55864;49.238;8.092;2023-08-17T05:38:31;99502.47;;;20.81;76.74
68859;BME280;55864;49.238;8.092;2023-08-17T05:40:32;99502.88;;;20.78;76.59
68859;BME280;55864;49.238;8.092;2023-08-17T05:42:34;99507.19;;;20.85;76.87
68859;BME280;55864;49.238;8.092;2023-08-17T05:44:34;99502.47;;;20.74;77.30
68859;BME280;55864;49.238;8.092;2023-08-17T05:46:35;99509.84;;;20.79;77.47
68859;BME280;55864;49.238;8.092;2023-08-17T05:48:36;99505.31;;;20.86;77.16
68859;BME280;55864;49.238;8.092;2023-08-17T05:50:36;99505.97;;;20.81;77.61
68859;BME280;55864;49.238;8.092;2023-08-17T05:52:37;99507.59;;;20.69;78.47
68859;BME280;55864;49.238;8.092;2023-08-17T05:54:37;99504.53;;;20.72;78.47
68859;BME280;55864;49.238;8.092;2023-08-17T05:56:38;99509.25;;;20.83;78.25
68859;BME280;55864;49.238;8.092;2023-08-17T05:58:39;99513.53;;;20.84;78.47
68859;BME280;55864;49.238;8.092;2023-08-17T06:00:40;99514.78;;;20.88;78.07
68859;BME280;55864;49.238;8.092;2023-08-17T06:02:41;99516.22;;;20.91;78.16
68859;BME280;55864;49.238;8.092;2023-08-17T06:04:41;99516.22;;;20.91;78.65
68859;BME280;55864;49.238;8.092;2023-08-17T06:06:42;99516.63;;;20.94;78.40
68859;BME280;55864;49.238;8.092;2023-08-17T06:08:42;99525.06;;;20.91;78.54
68859;BME280;55864;49.238;8.092;2023-08-17T06:10:43;99518.50;;;21.00;78.26
68859;BME280;55864;49.238;8.092;2023-08-17T06:12:43;99518.09;;;21.10;78.23
68859;BME280;55864;49.238;8.092;2023-08-17T06:14:45;99531.22;;;21.31;77.57
68859;BME280;55864;49.238;8.092;2023-08-17T06:16:46;99520.31;;;21.19;77.61
68859;BME280;55864;49.238;8.092;2023-08-17T06:18:46;99519.47;;;21.25;77.16
68859;BME280;55864;49.238;8.092;2023-08-17T06:20:47;99515.34;;;21.29;77.16
68859;BME280;55864;49.238;8.092;2023-08-17T06:22:47;99518.06;;;21.23;77.38
68859;BME280;55864;49.238;8.092;2023-08-17T06:24:48;99518.84;;;21.36;77.25
68859;BME280;55864;49.238;8.092;2023-08-17T06:26:48;99520.91;;;21.34;77.09
68859;BME280;55864;49.238;8.092;2023-08-17T06:28:49;99523.75;;;21.39;76.81
68859;BME280;55864;49.238;8.092;2023-08-17T06:30:53;99531.22;;;21.31;76.68
68859;BME280;55864;49.238;8.092;2023-08-17T06:32:53;99527.69;;;21.24;77.58
68859;BME280;55864;49.238;8.092;2023-08-17T06:34:54;99527.47;;;21.25;77.52
68859;BME280;55864;49.238;8.092;2023-08-17T06:36:58;99536.34;;;21.26;77.60
68859;BME280;55864;49.238;8.092;2023-08-17T06:38:59;99534.91;;;21.23;77.76
68859;BME280;55864;49.238;8.092;2023-08-17T06:40:59;99532.00;;;21.31;77.38
68859;BME280;55864;49.238;8.092;2023-08-17T06:43:00;99521.28;;;21.44;77.03
68859;BME280;55864;49.238;8.092;2023-08-17T06:45:00;99523.75;;;21.39;77.46
68859;BME280;55864;49.238;8.092;2023-08-17T06:47:02;99530.34;;;21.43;77.15
68859;BME280;55864;49.238;8.092;2023-08-17T06:49:03;99530.34;;;21.43;77.67
68859;BME280;55864;49.238;8.092;2023-08-17T06:51:04;99531.13;;;21.50;77.56
68859;BME280;55864;49.238;8.092;2023-08-17T06:53:04;99535.47;;;21.45;77.76
68859;BME280;55864;49.238;8.092;2023-08-17T06:55:05;99528.63;;;21.69;77.37
68859;BME280;55864;49.238;8.092;2023-08-17T06:57:05;99523.56;;;21.98;75.62
68859;BME280;55864;49.238;8.092;2023-08-17T06:59:06;99525.00;;;22.01;74.75
68859;BME280;55864;49.238;8.092;2023-08-17T07:01:06;99518.09;;;21.74;74.08
68859;BME280;55864;49.238;8.092;2023-08-17T07:03:08;99512.09;;;21.85;75.34
68859;BME280;55864;49.238;8.092;2023-08-17T07:05:09;99507.94;;;21.38;77.20
68859;BME280;55864;49.238;8.092;2023-08-17T07:07:09;99514.53;;;21.35;77.06
68859;BME280;55864;49.238;8.092;2023-08-17T07:09:10;99521.28;;;21.44;77.17
68859;BME280;55864;49.238;8.092;2023-08-17T07:11:10;99522.56;;;21.29;77.12
68859;BME280;55864;49.238;8.092;2023-08-17T07:13:11;99525.25;;;21.29;77.70
68859;BME280;55864;49.238;8.092;2023-08-17T07:15:12;99522.50;;;21.48;76.94
68859;BME280;55864;49.238;8.092;2023-08-17T07:17:12;99529.97;;;21.27;77.44
68859;BME280;55864;49.238;8.092;2023-08-17T07:19:14;99528.75;;;21.23;78.35
68859;BME280;55864;49.238;8.092;2023-08-17T07:21:15;99535.28;;;21.33;77.47
68859;BME280;55864;49.238;8.092;2023-08-17T07:23:15;99530.19;;;21.19;78.34
68859;BME280;55864;49.238;8.092;2023-08-17T07:25:16;99525.59;;;21.45;77.86
68859;BME280;55864;49.238;8.092;2023-08-17T07:27:16;99525.59;;;21.45;77.51
68859;BME280;55864;49.238;8.092;2023-08-17T07:29:17;99533.41;;;21.40;77.43
68859;BME280;55864;49.238;8.092;2023-08-17T07:31:17;99529.72;;;21.41;77.35
68859;BME280;55864;49.238;8.092;2023-08-17T07:33:18;99530.56;;;21.35;78.22
68859;BME280;55864;49.238;8.092;2023-08-17T07:35:20;99517.97;;;21.42;78.47
68859;BME280;55864;49.238;8.092;2023-08-17T07:37:20;99526.56;;;21.58;78.11
68859;BME280;55864;49.238;8.092;2023-08-17T07:39:21;99515.84;;;21.71;77.18
68859;BME280;55864;49.238;8.092;2023-08-17T07:41:21;99527.41;;;22.09;75.67
68859;BME280;55864;49.238;8.092;2023-08-17T07:43:22;99529.38;;;21.89;75.73
68859;BME280;55864;49.238;8.092;2023-08-17T07:45:22;99520.53;;;21.88;75.63
68859;BME280;55864;49.238;8.092;2023-08-17T07:47:23;99525.19;;;22.06;75.25
68859;BME280;55864;49.238;8.092;2023-08-17T07:49:23;99525.13;;;22.12;74.79
68859;BME280;55864;49.238;8.092;2023-08-17T07:51:25;99528.22;;;22.16;74.80
68859;BME280;55864;49.238;8.092;2023-08-17T07:53:26;99528.00;;;22.11;75.77
68859;BME280;55864;49.238;8.092;2023-08-17T07:55:26;99522.44;;;22.12;75.70
68859;BME280;55864;49.238;8.092;2023-08-17T07:57:27;99527.59;;;22.14;76.01
68859;BME280;55864;49.238;8.092;2023-08-17T07:59:27;99537.16;;;22.34;75.36
68859;BME280;55864;49.238;8.092;2023-08-17T08:01:28;99538.53;;;22.43;74.25
68859;BME280;55864;49.238;8.092;2023-08-17T08:03:28;99543.88;;;22.43;73.92
68859;BME280;55864;49.238;8.092;2023-08-17T08:05:29;99535.25;;;22.41;74.30
68859;BME280;55864;49.238;8.092;2023-08-17T08:07:31;99539.91;;;22.59;73.09
68859;BME280;55864;49.238;8.092;2023-08-17T08:09:32;99542.56;;;22.59;73.38
68859;BME280;55864;49.238;8.092;2023-08-17T08:11:32;99547.28;;;22.88;72.79
68859;BME280;55864;49.238;8.092;2023-08-17T08:13:33;99539.28;;;22.57;73.26
68859;BME280;55864;49.238;8.092;2023-08-17T08:15:33;99555.31;;;22.64;73.25
68859;BME280;55864;49.238;8.092;2023-08-17T08:17:34;99550.34;;;22.67;73.43
68859;BME280;55864;49.238;8.092;2023-08-17T08:19:34;99555.50;;;22.93;72.61
68859;BME280;55864;49.238;8.092;2023-08-17T08:21:35;99552.84;;;23.11;71.87
68859;BME280;55864;49.238;8.092;2023-08-17T08:23:37;99555.09;;;23.39;70.42
68859;BME280;55864;49.238;8.092;2023-08-17T08:25:37;99547.25;;;23.38;70.77
68859;BME280;55864;49.238;8.092;2023-08-17T08:27:38;99550.31;;;23.41;70.27
68859;BME280;55864;49.238;8.092;2023-08-17T08:29:39;99550.47;;;23.46;70.17
68859;BME280;55864;49.238;8.092;2023-08-17T08:31:39;99554.72;;;23.54;69.66
68859;BME280;55864;49.238;8.092;2023-08-17T08:33:40;99551.22;;;23.53;70.36
68859;BME280;55864;49.238;8.092;2023-08-17T08:35:40;99557.19;;;23.37;70.13
68859;BME280;55864;49.238;8.092;2023-08-17T08:37:41;99556.59;;;23.53;70.21
68859;BME280;55864;49.238;8.092;2023-08-17T08:39:49;99553.81;;;23.96;69.15
68859;BME280;55864;49.238;8.092;2023-08-17T08:41:50;99548.84;;;24.29;67.48
68859;BME280;55864;49.238;8.092;2023-08-17T08:43:51;99532.53;;;24.42;66.71
68859;BME280;55864;49.238;8.092;2023-08-17T08:45:51;99534.41;;;24.42;66.75
68859;BME280;55864;49.238;8.092;2023-08-17T08:47:52;99535.09;;;24.78;65.95
68859;BME280;55864;49.238;8.092;2023-08-17T08:49:59;99536.16;;;24.77;65.00
68859;BME280;55864;49.238;8.092;2023-08-17T08:52:00;99531.63;;;25.12;64.40
68859;BME280;55864;49.238;8.092;2023-08-17T08:54:04;99528.78;;;25.19;63.98
68859;BME280;55864;49.238;8.092;2023-08-17T08:56:10;99530.44;;;25.32;63.68
68859;BME280;55864;49.238;8.092;2023-08-17T08:58:11;99535.25;;;25.18;63.65
68859;BME280;55864;49.238;8.092;2023-08-17T09:00:13;99540.03;;;25.28;63.43
68859;BME280;55864;49.238;8.092;2023-08-17T09:02:15;99540.13;;;25.33;63.14
68859;BME280;55864;49.238;8.092;2023-08-17T09:04:16;99535.25;;;25.41;63.00
68859;BME280;55864;49.238;8.092;2023-08-17T09:06:18;99542.13;;;25.26;63.34
68859;BME280;55864;49.238;8.092;2023-08-17T09:08:21;99548.09;;;25.28;63.38
68859;BME280;55864;49.238;8.092;2023-08-17T09:10:22;99538.88;;;25.24;63.39
68859;BME280;55864;49.238;8.092;2023-08-17T09:12:24;99532.56;;;25.53;63.39
68859;BME280;55864;49.238;8.092;2023-08-17T09:14:24;99532.44;;;25.48;62.55
68859;BME280;55864;49.238;8.092;2023-08-17T09:16:27;99522.13;;;25.68;62.23
68859;BME280;55864;49.238;8.092;2023-08-17T09:18:27;99521.03;;;25.69;61.65
68859;BME280;55864;49.238;8.092;2023-08-17T09:20:36;99522.66;;;25.81;61.33
68859;BME280;55864;49.238;8.092;2023-08-17T09:22:37;99525.75;;;25.62;62.27
68859;BME280;55864;49.238;8.092;2023-08-17T09:24:38;99515.38;;;25.82;61.94
68859;BME280;55864;49.238;8.092;2023-08-17T09:26:39;99522.25;;;26.29;60.92
68859;BME280;55864;49.238;8.092;2023-08-17T09:28:40;99521.69;;;26.72;59.46
68859;BME280;55864;49.238;8.092;2023-08-17T09:30:54;99518.22;;;26.60;58.74
68859;BME280;55864;49.238;8.092;2023-08-17T09:32:55;99518.56;;;26.80;58.97
68859;BME280;55864;49.238;8.092;2023-08-17T09:34:55;99514.94;;;27.24;58.07
68859;BME280;55864;49.238;8.092;2023-08-17T09:36:56;99511.06;;;27.53;56.14
68859;BME280;55864;49.238;8.092;2023-08-17T09:39:02;99505.25;;;27.88;54.94
68859;BME280;55864;49.238;8.092;2023-08-17T09:41:03;99510.59;;;27.83;55.76
68859;BME280;55864;49.238;8.092;2023-08-17T09:43:04;99509.16;;;28.24;55.21
68859;BME280;55864;49.238;8.092;2023-08-17T09:45:07;99505.00;;;28.64;54.31
68859;BME280;55864;49.238;8.092;2023-08-17T09:47:10;99504.69;;;28.61;53.28
68859;BME280;55864;49.238;8.092;2023-08-17T09:49:10;99508.06;;;28.46;53.64
68859;BME280;55864;49.238;8.092;2023-08-17T09:51:14;99508.09;;;28.51;53.83
68859;BME280;55864;49.238;8.092;2023-08-17T09:53:16;99506.59;;;28.65;52.88
68859;BME280;55864;49.238;8.092;2023-08-17T09:55:18;99504.97;;;28.96;52.37
68859;BME280;55864;49.238;8.092;2023-08-17T09:57:19;99503.81;;;29.24;51.83
68859;BME280;55864;49.238;8.092;2023-08-17T09:59:20;99500.16;;;28.71;52.55
68859;BME280;55864;49.238;8.092;2023-08-17T10:01:23;99498.63;;;29.12;52.50
68859;BME280;55864;49.238;8.092;2023-08-17T10:03:25;99490.72;;;29.11;51.78
68859;BME280;55864;49.238;8.092;2023-08-17T10:05:31;99495.06;;;29.12;51.86
68859;BME280;55864;49.238;8.092;2023-08-17T10:07:38;99499.06;;;29.04;52.42
68859;BME280;55864;49.238;8.092;2023-08-17T10:09:43;99494.34;;;29.21;52.88
68859;BME280;55864;49.238;8.092;2023-08-17T10:11:47;99506.34;;;29.04;52.11
68859;BME280;55864;49.238;8.092;2023-08-17T10:13:52;99506.09;;;29.05;52.96
68859;BME280;55864;49.238;8.092;2023-08-17T10:15:59;99501.97;;;28.98;51.44
68859;BME280;55864;49.238;8.092;2023-08-17T10:18:09;99505.69;;;28.87;52.82
68859;BME280;55864;49.238;8.092;2023-08-17T10:20:14;99507.41;;;28.98;52.30
68859;BME280;55864;49.238;8.092;2023-08-17T10:22:17;99500.50;;;29.17;51.55
68859;BME280;55864;49.238;8.092;2023-08-17T10:24:19;99504.34;;;29.21;51.63
68859;BME280;55864;49.238;8.092;2023-08-17T10:26:20;99510.19;;;29.49;51.78
68859;BME280;55864;49.238;8.092;2023-08-17T10:28:22;99512.97;;;29.69;51.44
68859;BME280;55864;49.238;8.092;2023-08-17T10:30:23;99512.44;;;29.67;51.42
68859;BME280;55864;49.238;8.092;2023-08-17T10:32:24;99504.72;;;30.01;51.13
68859;BME280;55864;49.238;8.092;2023-08-17T10:34:26;99501.19;;;30.06;50.81
68859;BME280;55864;49.238;8.092;2023-08-17T10:36:27;99496.63;;;30.16;49.50
68859;BME280;55864;49.238;8.092;2023-08-17T10:38:29;99500.66;;;29.99;49.75
68859;BME280;55864;49.238;8.092;2023-08-17T10:40:35;99498.31;;;30.37;49.79
68859;BME280;55864;49.238;8.092;2023-08-17T10:42:36;99502.66;;;30.33;49.55